sensor_id;sensor_type;location;lat;lon;timestamp;pressure;altitude;pressure_sealevel;temperature;humidity
46456;BME280;64052;47.466;9.094;2022-12-18T00:02:34;96570.47;;;-0.28;71.46
46456;BME280;64052;47.466;9.094;2022-12-18T00:07:36;96571.69;;;-0.40;71.70
46456;BME280;64052;47.466;9.094;2022-12-18T00:12:37;96563.28;;;-0.48;71.90
46456;BME280;64052;47.466;9.094;2022-12-18T00:17:39;96563.97;;;-0.41;71.86
46456;BME280;64052;47.466;9.094;2022-12-18T00:22:40;96574.50;;;-0.48;71.93
46456;BME280;64052;47.466;9.094;2022-12-18T00:27:42;96572.88;;;-0.52;72.34
46456;BME280;64052;47.466;9.094;2022-12-18T00:32:43;96585.78;;;-0.49;72.37
46456;BME280;64052;47.466;9.094;2022-12-18T00:37:45;96593.38;;;-0.44;71.72
46456;BME280;64052;47.466;9.094;2022-12-18T00:42:46;96598.41;;;-0.38;71.53
46456;BME280;64052;47.466;9.094;2022-12-18T00:47:48;96594.94;;;-0.38;71.11
46456;BME280;64052;47.466;9.094;2022-12-18T00:52:50;96596.63;;;-0.37;71.24
46456;BME280;64052;47.466;9.094;2022-12-18T00:57:51;96589.75;;;-0.38;70.58
46456;BME280;64052;47.466;9.094;2022-12-18T01:02:53;96584.78;;;-0.45;71.28
46456;BME280;64052;47.466;9.094;2022-12-18T01:07:55;96583.88;;;-0.44;70.68
46456;BME280;64052;47.466;9.094;2022-12-18T01:12:57;96595.25;;;-0.48;71.07
46456;BME280;64052;47.466;9.094;2022-12-18T01:17:59;96604.72;;;-0.47;70.64
46456;BME280;64052;47.466;9.094;2022-12-18T01:23:01;96614.41;;;-0.53;71.21
46456;BME280;64052;47.466;9.094;2022-12-18T01:28:02;96617.94;;;-0.58;71.45
46456;BME280;64052;47.466;9.094;2022-12-18T01:33:06;96627.50;;;-0.60;71.63
46456;BME280;64052;47.466;9.094;2022-12-18T01:38:09;96633.47;;;-0.56;71.10
46456;BME280;64052;47.466;9.094;2022-12-18T01:43:11;96640.34;;;-0.55;71.27
46456;BME280;64052;47.466;9.094;2022-12-18T01:48:13;96651.59;;;-0.56;71.07
46456;BME280;64052;47.466;9.094;2022-12-18T01:53:20;96637.66;;;-0.52;71.40
46456;BME280;64052;47.466;9.094;2022-12-18T01:58:30;96638.50;;;-0.51;71.27
46456;BME280;64052;47.466;9.094;2022-12-18T02:03:34;96640.22;;;-0.50;71.01
46456;BME280;64052;47.466;9.094;2022-12-18T02:08:50;96636.59;;;-0.45;70.77
46456;BME280;64052;47.466;9.094;2022-12-18T02:20:09;96627.97;;;-0.45;70.61
46456;BME280;64052;47.466;9.094;2022-12-18T02:30:22;96635.41;;;-0.64;71.50
46456;BME280;64052;47.466;9.094;2022-12-18T02:35:27;96632.75;;;-0.61;70.53
46456;BME280;64052;47.466;9.094;2022-12-18T02:40:32;96640.47;;;-0.60;70.33
46456;BME280;64052;47.466;9.094;2022-12-18T02:45:35;96643.28;;;-0.67;70.09
46456;BME280;64052;47.466;9.094;2022-12-18T02:50:44;96643.13;;;-0.61;70.19
46456;BME280;64052;47.466;9.094;2022-12-18T02:56:07;96644.75;;;-0.59;70.32
46456;BME280;64052;47.466;9.094;2022-12-18T03:01:35;96640.56;;;-0.63;70.31
46456;BME280;64052;47.466;9.094;2022-12-18T03:06:44;96641.56;;;-0.68;70.98
46456;BME280;64052;47.466;9.094;2022-12-18T03:11:55;96645.84;;;-0.67;70.67
46456;BME280;64052;47.466;9.094;2022-12-18T03:17:05;96657.09;;;-0.68;70.33
46456;BME280;64052;47.466;9.094;2022-12-18T03:22:10;96659.09;;;-0.78;70.90
46456;BME280;64052;47.466;9.094;2022-12-18T03:27:21;96647.88;;;-0.79;71.03
46456;BME280;64052;47.466;9.094;2022-12-18T03:32:31;96646.16;;;-0.78;71.09
46456;BME280;64052;47.466;9.094;2022-12-18T03:37:34;96643.78;;;-0.86;70.51
46456;BME280;64052;47.466;9.094;2022-12-18T03:42:52;96647.38;;;-0.92;71.08
46456;BME280;64052;47.466;9.094;2022-12-18T03:48:08;96658.44;;;-0.87;71.05
46456;BME280;64052;47.466;9.094;2022-12-18T03:58:43;96675.66;;;-0.84;70.85
46456;BME280;64052;47.466;9.094;2022-12-18T04:04:00;96681.63;;;-0.82;70.43
46456;BME280;64052;47.466;9.094;2022-12-18T04:09:06;96685.91;;;-0.79;70.66
46456;BME280;64052;47.466;9.094;2022-12-18T04:14:12;96690.81;;;-0.70;70.31
46456;BME280;64052;47.466;9.094;2022-12-18T04:19:18;96685.03;;;-0.80;69.84
46456;BME280;64052;47.466;9.094;2022-12-18T04:24:23;96686.06;;;-0.87;70.43
46456;BME280;64052;47.466;9.094;2022-12-18T04:29:40;96694.81;;;-0.91;70.29
46456;BME280;64052;47.466;9.094;2022-12-18T04:34:42;96703.19;;;-0.81;70.36
46456;BME280;64052;47.466;9.094;2022-12-18T04:39:44;96708.63;;;-0.91;70.47
46456;BME280;64052;47.466;9.094;2022-12-18T04:44:54;96707.66;;;-0.87;69.78
46456;BME280;64052;47.466;9.094;2022-12-18T04:49:55;96708.44;;;-0.85;69.72
46456;BME280;64052;47.466;9.094;2022-12-18T04:54:57;96712.16;;;-0.95;69.54
46456;BME280;64052;47.466;9.094;2022-12-18T04:59:58;96716.59;;;-0.98;70.18
46456;BME280;64052;47.466;9.094;2022-12-18T05:05:00;96721.78;;;-0.98;69.75
46456;BME280;64052;47.466;9.094;2022-12-18T05:10:01;96714.00;;;-0.98;69.62
46456;BME280;64052;47.466;9.094;2022-12-18T05:15:03;96702.81;;;-1.01;70.48
46456;BME280;64052;47.466;9.094;2022-12-18T05:20:05;96711.34;;;-0.97;69.84
46456;BME280;64052;47.466;9.094;2022-12-18T05:25:07;96710.53;;;-0.97;69.39
46456;BME280;64052;47.466;9.094;2022-12-18T05:30:10;96726.94;;;-0.98;69.86
46456;BME280;64052;47.466;9.094;2022-12-18T05:35:12;96725.31;;;-1.03;70.50
46456;BME280;64052;47.466;9.094;2022-12-18T05:40:13;96732.38;;;-1.09;70.23
46456;BME280;64052;47.466;9.094;2022-12-18T05:45:15;96732.97;;;-1.00;69.78
46456;BME280;64052;47.466;9.094;2022-12-18T05:50:16;96740.81;;;-1.03;70.38
46456;BME280;64052;47.466;9.094;2022-12-18T05:55:18;96742.63;;;-1.05;70.08
46456;BME280;64052;47.466;9.094;2022-12-18T06:00:19;96739.25;;;-1.08;70.01
46456;BME280;64052;47.466;9.094;2022-12-18T06:05:21;96752.28;;;-1.13;69.89
46456;BME280;64052;47.466;9.094;2022-12-18T06:10:22;96747.13;;;-1.13;69.87
46456;BME280;64052;47.466;9.094;2022-12-18T06:15:24;96746.22;;;-1.12;69.87
46456;BME280;64052;47.466;9.094;2022-12-18T06:20:25;96744.72;;;-1.21;69.63
46456;BME280;64052;47.466;9.094;2022-12-18T06:25:36;96748.25;;;-1.23;69.72
46456;BME280;64052;47.466;9.094;2022-12-18T06:30:38;96747.41;;;-1.25;69.14
46456;BME280;64052;47.466;9.094;2022-12-18T06:35:39;96745.88;;;-1.34;69.39
46456;BME280;64052;47.466;9.094;2022-12-18T06:40:41;96760.59;;;-1.35;69.29
46456;BME280;64052;47.466;9.094;2022-12-18T06:45:42;96759.72;;;-1.35;69.54
46456;BME280;64052;47.466;9.094;2022-12-18T06:50:44;96771.06;;;-1.41;68.87
46456;BME280;64052;47.466;9.094;2022-12-18T06:55:45;96781.59;;;-1.50;69.07
46456;BME280;64052;47.466;9.094;2022-12-18T07:00:47;96785.06;;;-1.50;69.26
46456;BME280;64052;47.466;9.094;2022-12-18T07:05:48;96790.97;;;-1.45;69.07
46456;BME280;64052;47.466;9.094;2022-12-18T07:10:50;96811.44;;;-1.34;68.79
46456;BME280;64052;47.466;9.094;2022-12-18T07:16:03;96819.22;;;-1.35;68.85
46456;BME280;64052;47.466;9.094;2022-12-18T07:21:12;96837.34;;;-1.37;69.16
46456;BME280;64052;47.466;9.094;2022-12-18T07:26:17;96839.19;;;-1.40;69.17
46456;BME280;64052;47.466;9.094;2022-12-18T07:31:20;96845.38;;;-1.49;69.32
46456;BME280;64052;47.466;9.094;2022-12-18T07:36:22;96852.19;;;-1.45;69.07
46456;BME280;64052;47.466;9.094;2022-12-18T07:41:24;96845.25;;;-1.43;68.87
46456;BME280;64052;47.466;9.094;2022-12-18T07:46:25;96853.91;;;-1.44;69.18
46456;BME280;64052;47.466;9.094;2022-12-18T07:51:27;96839.19;;;-1.42;69.02
46456;BME280;64052;47.466;9.094;2022-12-18T07:56:28;96843.41;;;-1.38;68.86
46456;BME280;64052;47.466;9.094;2022-12-18T08:01:32;96852.88;;;-1.37;68.90
46456;BME280;64052;47.466;9.094;2022-12-18T08:06:34;96843.56;;;-1.44;68.06
46456;BME280;64052;47.466;9.094;2022-12-18T08:11:36;96847.97;;;-1.49;68.42
46456;BME280;64052;47.466;9.094;2022-12-18T08:16:37;96854.91;;;-1.51;68.60
46456;BME280;64052;47.466;9.094;2022-12-18T08:21:39;96865.16;;;-1.47;68.59
46456;BME280;64052;47.466;9.094;2022-12-18T08:26:40;96868.53;;;-1.43;68.61
46456;BME280;64052;47.466;9.094;2022-12-18T08:31:52;96863.28;;;-1.38;68.22
46456;BME280;64052;47.466;9.094;2022-12-18T08:36:53;96875.41;;;-1.42;68.09
46456;BME280;64052;47.466;9.094;2022-12-18T08:41:55;96866.75;;;-1.41;67.69
46456;BME280;64052;47.466;9.094;2022-12-18T08:46:56;96869.28;;;-1.38;67.60
46456;BME280;64052;47.466;9.094;2022-12-18T08:51:58;96884.69;;;-1.32;67.04
46456;BME280;64052;47.466;9.094;2022-12-18T08:56:59;96878.00;;;-1.42;66.64
46456;BME280;64052;47.466;9.094;2022-12-18T09:02:01;96876.31;;;-1.43;67.59
46456;BME280;64052;47.466;9.094;2022-12-18T09:07:03;96872.94;;;-1.48;66.81
46456;BME280;64052;47.466;9.094;2022-12-18T09:12:05;96872.09;;;-1.49;67.32
46456;BME280;64052;47.466;9.094;2022-12-18T09:17:06;96868.69;;;-1.51;67.50
46456;BME280;64052;47.466;9.094;2022-12-18T09:22:08;96855.72;;;-1.49;67.62
46456;BME280;64052;47.466;9.094;2022-12-18T09:27:09;96846.25;;;-1.50;68.04
46456;BME280;64052;47.466;9.094;2022-12-18T09:32:11;96857.22;;;-1.39;67.93
46456;BME280;64052;47.466;9.094;2022-12-18T09:37:17;96846.66;;;-1.28;67.33
46456;BME280;64052;47.466;9.094;2022-12-18T09:42:22;96856.78;;;-1.17;65.93
46456;BME280;64052;47.466;9.094;2022-12-18T09:47:28;96869.63;;;-1.14;65.93
46456;BME280;64052;47.466;9.094;2022-12-18T09:52:37;96865.88;;;-0.99;65.96
46456;BME280;64052;47.466;9.094;2022-12-18T09:57:45;96859.25;;;-1.11;65.37
46456;BME280;64052;47.466;9.094;2022-12-18T10:02:58;96854.88;;;-1.09;65.43
46456;BME280;64052;47.466;9.094;2022-12-18T10:08:23;96855.78;;;-1.11;64.90
46456;BME280;64052;47.466;9.094;2022-12-18T10:13:56;96861.03;;;-1.15;65.60
46456;BME280;64052;47.466;9.094;2022-12-18T10:29:41;96865.34;;;-1.15;65.69
46456;BME280;64052;47.466;9.094;2022-12-18T10:34:50;96854.91;;;-1.12;66.37
46456;BME280;64052;47.466;9.094;2022-12-18T10:40:11;96857.75;;;-1.21;66.20
46456;BME280;64052;47.466;9.094;2022-12-18T10:45:22;96870.44;;;-1.12;66.37
46456;BME280;64052;47.466;9.094;2022-12-18T10:50:31;96871.03;;;-0.99;65.86
46456;BME280;64052;47.466;9.094;2022-12-18T10:55:56;96871.41;;;-1.15;64.74
46456;BME280;64052;47.466;9.094;2022-12-18T11:01:15;96882.19;;;-1.36;66.67
46456;BME280;64052;47.466;9.094;2022-12-18T11:06:21;96872.00;;;-1.44;67.23
46456;BME280;64052;47.466;9.094;2022-12-18T11:11:23;96861.47;;;-1.35;67.54
46456;BME280;64052;47.466;9.094;2022-12-18T11:16:26;96863.94;;;-1.30;68.08
46456;BME280;64052;47.466;9.094;2022-12-18T11:21:28;96873.19;;;-1.18;67.97
46456;BME280;64052;47.466;9.094;2022-12-18T11:26:34;96853.38;;;-1.19;68.02
46456;BME280;64052;47.466;9.094;2022-12-18T11:31:37;96854.91;;;-1.12;67.07
46456;BME280;64052;47.466;9.094;2022-12-18T11:36:43;96851.03;;;-0.92;67.01
46456;BME280;64052;47.466;9.094;2022-12-18T11:41:53;96838.78;;;-0.84;65.98
46456;BME280;64052;47.466;9.094;2022-12-18T14:24:13;96787.19;;;-0.92;68.19
46456;BME280;64052;47.466;9.094;2022-12-18T14:29:29;96789.78;;;-0.92;68.91
46456;BME280;64052;47.466;9.094;2022-12-18T14:34:31;96795.94;;;-0.97;68.98
46456;BME280;64052;47.466;9.094;2022-12-18T14:39:32;96804.03;;;-1.11;69.72
46456;BME280;64052;47.466;9.094;2022-12-18T14:44:34;96802.03;;;-1.00;69.50
46456;BME280;64052;47.466;9.094;2022-12-18T14:49:55;96797.78;;;-1.03;69.69
46456;BME280;64052;47.466;9.094;2022-12-18T14:54:57;96793.66;;;-1.11;70.00
46456;BME280;64052;47.466;9.094;2022-12-18T15:00:10;96794.38;;;-1.05;69.97
46456;BME280;64052;47.466;9.094;2022-12-18T15:49:23;96787.41;;;-0.66;70.92
46456;BME280;64052;47.466;9.094;2022-12-18T15:54:25;96795.28;;;-0.71;70.50
46456;BME280;64052;47.466;9.094;2022-12-18T15:59:27;96785.94;;;-0.77;71.00
46456;BME280;64052;47.466;9.094;2022-12-18T20:17:38;96724.75;;;-0.81;72.51
46456;BME280;64052;47.466;9.094;2022-12-18T20:22:40;96726.56;;;-0.83;72.55
46456;BME280;64052;47.466;9.094;2022-12-18T20:27:41;96721.47;;;-0.88;nan
46456;BME280;64052;47.466;9.094;2022-12-18T20:32:43;96715.09;;;-0.74;72.87
46456;BME280;64052;47.466;9.094;2022-12-18T20:37:44;96721.16;;;-0.75;72.39
46456;BME280;64052;47.466;9.094;2022-12-18T20:42:51;96711.09;;;-0.86;73.28
46456;BME280;64052;47.466;9.094;2022-12-18T20:47:54;96711.13;;;-0.88;74.00
46456;BME280;64052;47.466;9.094;2022-12-18T20:52:55;96725.78;;;-0.88;73.95
46456;BME280;64052;47.466;9.094;2022-12-18T20:57:56;96727.63;;;-0.92;73.77
46456;BME280;64052;47.466;9.094;2022-12-18T21:02:58;96717.97;;;-0.85;73.63
46456;BME280;64052;47.466;9.094;2022-12-18T21:07:59;96716.00;;;-0.77;73.31
46456;BME280;64052;47.466;9.094;2022-12-18T21:13:01;96723.06;;;-0.82;73.21
46456;BME280;64052;47.466;9.094;2022-12-18T21:18:08;96713.63;;;-0.85;73.35
46456;BME280;64052;47.466;9.094;2022-12-18T21:33:57;96699.44;;;-0.69;72.72
46456;BME280;64052;47.466;9.094;2022-12-18T21:39:02;96700.25;;;-0.67;72.75
46456;BME280;64052;47.466;9.094;2022-12-18T21:44:04;96701.16;;;-0.70;72.83
46456;BME280;64052;47.466;9.094;2022-12-18T21:49:07;96703.88;;;-0.75;72.62
46456;BME280;64052;47.466;9.094;2022-12-18T21:54:09;96716.09;;;-0.80;72.74
46456;BME280;64052;47.466;9.094;2022-12-18T21:59:14;96719.50;;;-0.78;73.26
46456;BME280;64052;47.466;9.094;2022-12-18T22:04:16;96715.31;;;-0.83;72.88
46456;BME280;64052;47.466;9.094;2022-12-18T22:09:20;96717.13;;;-0.86;73.01
46456;BME280;64052;47.466;9.094;2022-12-18T22:14:22;96705.19;;;-0.93;73.24
46456;BME280;64052;47.466;9.094;2022-12-18T22:19:24;96702.50;;;-0.88;73.26
46456;BME280;64052;47.466;9.094;2022-12-18T22:24:26;96705.91;;;-0.86;73.10
46456;BME280;64052;47.466;9.094;2022-12-18T22:29:27;96704.06;;;-0.82;73.28
46456;BME280;64052;47.466;9.094;2022-12-18T22:34:30;96695.47;;;-0.83;73.14
46456;BME280;64052;47.466;9.094;2022-12-18T22:39:37;96700.53;;;-0.78;73.08
46456;BME280;64052;47.466;9.094;2022-12-18T22:44:38;96699.56;;;-0.74;73.09
46456;BME280;64052;47.466;9.094;2022-12-18T22:49:40;96697.69;;;-0.69;72.95
46456;BME280;64052;47.466;9.094;2022-12-18T22:54:41;96697.69;;;-0.69;72.66
46456;BME280;64052;47.466;9.094;2022-12-18T22:59:43;96696.75;;;-0.66;72.51
46456;BME280;64052;47.466;9.094;2022-12-18T23:04:44;96696.97;;;-0.74;73.37
46456;BME280;64052;47.466;9.094;2022-12-18T23:09:46;96685.47;;;-0.64;72.89
46456;BME280;64052;47.466;9.094;2022-12-18T23:14:50;96686.13;;;-0.55;72.51
46456;BME280;64052;47.466;9.094;2022-12-18T23:19:51;96685.16;;;-0.51;72.29
46456;BME280;64052;47.466;9.094;2022-12-18T23:24:53;96672.13;;;-0.50;72.96
46456;BME280;64052;47.466;9.094;2022-12-18T23:29:54;96694.72;;;-0.55;73.11
46456;BME280;64052;47.466;9.094;2022-12-18T23:34:58;96675.44;;;-0.43;73.14
46456;BME280;64052;47.466;9.094;2022-12-18T23:40:00;96676.34;;;-0.46;72.68
46456;BME280;64052;47.466;9.094;2022-12-18T23:45:01;96687.63;;;-0.48;73.00
46456;BME280;64052;47.466;9.094;2022-12-18T23:50:18;96692.00;;;-0.49;72.67
46456;BME280;64052;47.466;9.094;2022-12-18T23:55:24;96682.56;;;-0.51;72.76
